createdAt,value
2023-04-15T00:01:05.980Z,78.10
2023-04-15T00:03:34.556Z,79.20
2023-04-15T00:06:02.319Z,78.60
2023-04-15T00:08:29.939Z,78.20
2023-04-15T00:10:56.724Z,77.90
2023-04-15T00:13:23.626Z,77.90
2023-04-15T00:15:50.276Z,77.70
2023-04-15T00:18:16.993Z,77.60
2023-04-15T00:20:43.644Z,77.10
2023-04-15T00:23:10.322Z,77.10
2023-04-15T00:25:36.998Z,76.90
2023-04-15T00:28:03.958Z,77.20
2023-04-15T00:30:31.329Z,77.20
2023-04-15T00:32:58.051Z,75.80
2023-04-15T00:35:24.835Z,75.40
2023-04-15T00:37:51.661Z,75.90
2023-04-15T00:40:20.927Z,75.10
2023-04-15T00:42:47.837Z,74.90
2023-04-15T00:45:14.557Z,75.20
2023-04-15T00:47:44.995Z,75.70
2023-04-15T00:50:12.850Z,76.40
2023-04-15T00:52:40.626Z,76.80
2023-04-15T00:55:08.670Z,77.60
2023-04-15T00:57:36.434Z,77.30
2023-04-15T01:00:05.633Z,77.90
2023-04-15T01:02:33.270Z,79.00
2023-04-15T01:05:02.538Z,79.00
2023-04-15T01:07:29.310Z,79.00
2023-04-15T01:09:56.842Z,78.00
2023-04-15T01:12:26.344Z,78.20
2023-04-15T01:14:55.095Z,79.30
2023-04-15T01:17:22.094Z,80.30
2023-04-15T01:19:48.878Z,80.30
2023-04-15T01:22:16.121Z,79.80
2023-04-15T01:24:52.157Z,79.10
2023-04-15T01:27:20.603Z,79.40
2023-04-15T01:29:48.168Z,80.00
2023-04-15T01:32:15.578Z,78.90
2023-04-15T01:34:42.268Z,78.30
2023-04-15T01:37:08.925Z,77.90
2023-04-15T01:39:36.038Z,77.90
2023-04-15T01:42:03.243Z,77.80
2023-04-15T01:44:29.932Z,77.10
2023-04-15T01:46:56.658Z,76.80
2023-04-15T01:49:23.956Z,77.20
2023-04-15T01:51:50.656Z,77.30
2023-04-15T01:54:17.351Z,77.10
2023-04-15T01:56:44.642Z,76.60
2023-04-15T01:59:11.375Z,77.50
2023-04-15T02:01:38.830Z,76.70
2023-04-15T02:04:05.713Z,77.20
2023-04-15T02:06:33.264Z,77.10
2023-04-15T02:09:00.252Z,76.40
2023-04-15T02:11:27.223Z,76.70
2023-04-15T02:13:53.913Z,76.80
2023-04-15T02:16:21.262Z,76.50
2023-04-15T02:18:48.221Z,76.70
2023-04-15T02:21:15.075Z,76.10
2023-04-15T02:23:41.863Z,76.20
2023-04-15T02:26:08.581Z,75.90
2023-04-15T02:28:35.768Z,77.20
2023-04-15T02:31:06.476Z,78.10
2023-04-15T02:33:33.425Z,77.70
2023-04-15T02:36:01.061Z,77.50
2023-04-15T02:38:28.521Z,78.20
2023-04-15T02:40:55.463Z,78.40
2023-04-15T02:43:22.258Z,78.50
2023-04-15T02:45:51.231Z,78.20
2023-04-15T02:48:19.733Z,77.90
2023-04-15T02:50:47.806Z,77.50
2023-04-15T02:53:15.522Z,76.80
2023-04-15T02:55:42.903Z,76.50
2023-04-15T02:58:09.788Z,76.60
2023-04-15T03:00:36.753Z,77.00
2023-04-15T03:03:06.102Z,76.70
2023-04-15T03:05:33.195Z,76.70
2023-04-15T03:08:01.409Z,77.20
2023-04-15T03:10:28.430Z,77.50
2023-04-15T03:12:55.116Z,77.40
2023-04-15T03:15:23.559Z,77.20
2023-04-15T03:17:52.650Z,77.20
2023-04-15T03:20:19.766Z,76.50
2023-04-15T03:22:47.978Z,75.60
2023-04-15T03:25:14.752Z,76.30
2023-04-15T03:27:42.034Z,75.90
2023-04-15T03:30:09.485Z,76.00
2023-04-15T03:32:38.306Z,76.40
2023-04-15T03:35:06.798Z,76.20
2023-04-15T03:37:33.451Z,75.60
2023-04-15T03:40:00.487Z,75.80
2023-04-15T03:42:27.153Z,75.60
2023-04-15T03:44:53.875Z,76.10
2023-04-15T03:47:20.936Z,75.90
2023-04-15T03:49:47.661Z,76.20
2023-04-15T03:52:14.409Z,75.90
2023-04-15T03:54:41.391Z,76.20
2023-04-15T03:57:08.108Z,76.10
2023-04-15T03:59:34.783Z,75.50
2023-04-15T04:02:01.629Z,75.90
2023-04-15T04:04:28.478Z,75.90
2023-04-15T04:06:55.417Z,75.30
2023-04-15T04:09:22.327Z,75.60
2023-04-15T04:11:49.073Z,75.10
2023-04-15T04:14:15.891Z,75.20
2023-04-15T04:16:42.585Z,75.00
2023-04-15T04:19:09.276Z,75.00
2023-04-15T04:21:36.525Z,75.10
2023-04-15T04:24:03.397Z,74.60
2023-04-15T04:26:30.075Z,75.60
2023-04-15T04:28:56.768Z,75.90
2023-04-15T04:31:23.478Z,75.30
2023-04-15T04:33:50.448Z,75.20
2023-04-15T04:36:17.097Z,75.00
2023-04-15T04:38:43.865Z,75.00
2023-04-15T04:41:10.634Z,75.10
2023-04-15T04:43:37.379Z,74.90
2023-04-15T04:46:04.091Z,74.70
2023-04-15T04:48:31.897Z,75.20
2023-04-15T04:50:59.024Z,75.00
2023-04-15T04:53:25.775Z,75.00
2023-04-15T04:55:52.518Z,74.90
2023-04-15T04:58:19.428Z,74.90
2023-04-15T05:00:46.532Z,75.10
2023-04-15T05:03:13.398Z,75.10
2023-04-15T05:05:41.107Z,74.80
2023-04-15T05:08:07.968Z,74.90
2023-04-15T05:10:34.861Z,74.70
2023-04-15T05:13:01.641Z,74.10
2023-04-15T05:15:28.485Z,74.40
2023-04-15T05:17:55.422Z,74.70
2023-04-15T05:20:22.289Z,74.60
2023-04-15T05:22:49.040Z,74.40
2023-04-15T05:25:16.295Z,74.10
2023-04-15T05:27:43.100Z,74.00
2023-04-15T05:30:12.092Z,73.80
2023-04-15T05:32:40.392Z,73.40
2023-04-15T05:35:08.023Z,73.50
2023-04-15T05:37:34.746Z,72.70
2023-04-15T05:40:01.516Z,73.30
2023-04-15T05:42:28.244Z,73.20
2023-04-15T05:44:54.959Z,72.70
2023-04-15T05:47:21.757Z,72.70
2023-04-15T05:49:48.467Z,72.60
2023-04-15T05:52:15.455Z,72.10
2023-04-15T05:54:42.132Z,72.00
2023-04-15T05:57:08.825Z,71.50
2023-04-15T05:59:35.572Z,71.60
2023-04-15T06:02:02.590Z,71.50
2023-04-15T06:04:29.494Z,70.90
2023-04-15T06:06:56.304Z,70.60
2023-04-15T06:09:22.982Z,70.20
2023-04-15T06:11:49.706Z,69.90
2023-04-15T06:14:16.846Z,69.60
2023-04-15T06:16:43.558Z,70.00
2023-04-15T06:19:10.859Z,70.30
2023-04-15T06:21:37.804Z,70.40
2023-04-15T06:24:04.681Z,70.30
2023-04-15T06:26:31.479Z,70.20
2023-04-15T06:28:58.220Z,70.00
2023-04-15T06:31:24.921Z,69.30
2023-04-15T06:33:51.885Z,68.20
2023-04-15T06:36:19.358Z,67.00
2023-04-15T06:38:46.072Z,66.50
2023-04-15T06:41:12.961Z,64.80
2023-04-15T06:43:40.196Z,63.60
2023-04-15T06:46:06.999Z,63.20
2023-04-15T06:48:33.899Z,62.80
2023-04-15T06:51:00.608Z,62.50
2023-04-15T06:53:28.073Z,61.90
2023-04-15T06:55:55.055Z,61.50
2023-04-15T06:58:22.124Z,60.60
2023-04-15T07:00:49.067Z,60.40
2023-04-15T07:03:16.147Z,60.30
2023-04-15T07:05:43.387Z,60.00
2023-04-15T07:08:10.231Z,59.00
2023-04-15T07:10:37.093Z,58.40
2023-04-15T07:13:04.592Z,57.30
2023-04-15T07:15:31.299Z,52.90
2023-04-15T07:17:58.182Z,54.10
2023-04-15T07:20:24.930Z,54.50
2023-04-15T07:22:51.737Z,55.10
2023-04-15T07:25:18.942Z,54.70
2023-04-15T07:27:45.873Z,54.90
2023-04-15T07:30:13.217Z,55.10
2023-04-15T07:32:40.537Z,55.60
2023-04-15T07:35:07.793Z,55.30
2023-04-15T07:37:34.526Z,55.30
2023-04-15T07:40:01.812Z,55.40
2023-04-15T07:42:29.278Z,54.50
2023-04-15T07:44:56.589Z,54.30
2023-04-15T07:47:23.366Z,52.70
2023-04-15T07:49:51.450Z,55.10
2023-04-15T07:52:18.851Z,53.50
2023-04-15T07:54:45.892Z,52.70
2023-04-15T07:57:12.564Z,53.60
2023-04-15T07:59:39.486Z,53.10
2023-04-15T08:02:06.247Z,52.50
2023-04-15T08:04:34.165Z,52.80
2023-04-15T08:07:01.082Z,53.20
2023-04-15T08:09:27.769Z,51.90
2023-04-15T08:11:54.590Z,52.20
2023-04-15T08:14:21.604Z,51.50
2023-04-15T08:16:48.495Z,51.80
2023-04-15T08:19:15.296Z,51.30
2023-04-15T08:21:42.067Z,51.10
2023-04-15T08:24:08.825Z,51.60
2023-04-15T08:26:35.763Z,53.30
2023-04-15T08:29:02.851Z,52.10
2023-04-15T08:31:30.618Z,51.80
2023-04-15T08:33:57.845Z,52.20
2023-04-15T08:36:24.536Z,51.30
2023-04-15T08:38:51.233Z,50.90
2023-04-15T08:41:27.157Z,50.70
2023-04-15T08:44:05.339Z,51.00
2023-04-15T08:46:34.744Z,51.20
2023-04-15T08:49:04.845Z,52.00
2023-04-15T08:51:33.612Z,50.40
2023-04-15T08:54:01.501Z,52.10
2023-04-15T08:56:30.888Z,52.30
2023-04-15T08:58:57.838Z,51.40
2023-04-15T09:01:25.505Z,51.50
2023-04-15T09:03:54.762Z,49.80
2023-04-15T09:06:22.939Z,50.10
2023-04-15T09:08:50.525Z,47.30
2023-04-15T09:11:20.031Z,48.90
2023-04-15T09:13:47.064Z,49.00
2023-04-15T09:16:14.298Z,46.90
2023-04-15T09:18:41.168Z,47.70
2023-04-15T09:21:11.207Z,47.70
2023-04-15T09:23:39.850Z,48.60
2023-04-15T09:26:07.106Z,47.30
2023-04-15T09:28:40.958Z,47.70
2023-04-15T09:31:07.846Z,48.70
2023-04-15T09:33:34.709Z,45.90
2023-04-15T09:36:05.059Z,46.80
2023-04-15T09:38:32.435Z,47.00
2023-04-15T09:40:59.366Z,46.50
2023-04-15T09:43:40.000Z,46.50
2023-04-15T09:46:07.031Z,48.60
2023-04-15T09:48:33.828Z,44.30
2023-04-15T09:51:01.722Z,43.40
2023-04-15T09:53:30.572Z,48.10
2023-04-15T09:56:02.980Z,47.00
2023-04-15T09:58:31.724Z,49.00
2023-04-15T10:00:59.790Z,46.50
2023-04-15T10:03:29.621Z,47.90
2023-04-15T10:05:58.236Z,47.40
2023-04-15T10:08:30.868Z,47.50
2023-04-15T10:10:57.617Z,49.30
2023-04-15T10:13:25.896Z,49.00
2023-04-15T10:15:58.811Z,46.70
2023-04-15T10:18:31.843Z,47.00
2023-04-15T10:21:00.751Z,47.70
2023-04-15T10:23:28.047Z,48.10
2023-04-15T10:25:55.330Z,45.90
2023-04-15T10:28:25.318Z,47.40
2023-04-15T10:30:53.506Z,46.70
2023-04-15T10:33:22.837Z,46.40
2023-04-15T10:35:51.656Z,46.30
2023-04-15T10:38:33.874Z,44.80
2023-04-15T10:41:27.865Z,43.90
2023-04-15T10:43:55.805Z,44.40
2023-04-15T10:46:43.865Z,44.80
2023-04-15T10:49:16.274Z,45.30
2023-04-15T10:51:53.569Z,45.70
2023-04-15T10:54:26.439Z,43.90
2023-04-15T10:57:09.209Z,47.30
2023-04-15T10:59:36.837Z,47.00
2023-04-15T11:02:06.013Z,44.20
2023-04-15T11:04:57.946Z,45.10
2023-04-15T11:07:50.857Z,45.90
2023-04-15T11:10:20.998Z,44.90
2023-04-15T11:12:52.163Z,44.70
2023-04-15T11:15:41.047Z,46.90
2023-04-15T11:18:14.854Z,47.50
2023-04-15T11:20:45.038Z,44.70
2023-04-15T11:23:14.730Z,43.10
2023-04-15T11:25:43.275Z,42.90
2023-04-15T11:28:11.956Z,43.90
2023-04-15T11:30:40.240Z,42.20
2023-04-15T11:33:09.354Z,41.70
2023-04-15T11:35:36.566Z,42.60
2023-04-15T11:38:11.992Z,43.80
2023-04-15T11:40:39.627Z,45.80
2023-04-15T11:43:21.527Z,45.10
2023-04-15T11:45:53.872Z,44.70
2023-04-15T11:48:32.833Z,45.00
2023-04-15T11:51:09.448Z,44.30
2023-04-15T11:53:50.451Z,44.90
2023-04-15T11:56:26.120Z,45.50
2023-04-15T11:58:57.057Z,42.50
2023-04-15T12:01:41.254Z,43.60
2023-04-15T12:04:17.057Z,42.00
2023-04-15T12:06:43.962Z,41.50
2023-04-15T12:09:15.654Z,41.40
2023-04-15T12:11:48.213Z,40.50
2023-04-15T12:14:17.729Z,41.70
2023-04-15T12:16:49.465Z,41.50
2023-04-15T12:19:27.488Z,41.30
2023-04-15T12:22:15.676Z,40.50
2023-04-15T12:24:44.321Z,42.70
2023-04-15T12:27:15.920Z,43.20
2023-04-15T12:29:43.229Z,44.10
2023-04-15T12:32:15.089Z,45.40
2023-04-15T12:34:50.313Z,43.60
2023-04-15T12:37:17.638Z,48.60
2023-04-15T12:39:48.735Z,50.30
2023-04-15T12:42:16.334Z,52.40
2023-04-15T12:44:43.109Z,52.20
2023-04-15T12:47:11.292Z,52.80
2023-04-15T12:49:38.125Z,53.90
2023-04-15T12:52:05.185Z,54.90
2023-04-15T12:54:32.259Z,55.00
2023-04-15T12:56:59.856Z,55.40
2023-04-15T12:59:26.959Z,55.80
2023-04-15T13:01:54.623Z,56.00
2023-04-15T13:04:22.093Z,57.10
2023-04-15T13:06:49.416Z,57.30
2023-04-15T13:09:16.226Z,57.20
2023-04-15T13:11:43.244Z,57.50
2023-04-15T13:14:12.846Z,58.90
2023-04-15T13:16:39.850Z,59.70
2023-04-15T13:19:06.657Z,60.80
2023-04-15T13:21:35.595Z,61.70
2023-04-15T13:24:03.835Z,62.60
2023-04-15T13:26:31.548Z,63.40
2023-04-15T13:28:58.298Z,63.60
2023-04-15T13:31:25.104Z,63.20
2023-04-15T13:33:51.796Z,62.00
2023-04-15T13:36:18.570Z,62.50
2023-04-15T13:38:45.258Z,62.80
2023-04-15T13:41:11.916Z,62.70
2023-04-15T13:43:38.575Z,61.20
2023-04-15T13:46:05.523Z,61.20
2023-04-15T13:48:32.262Z,60.40
2023-04-15T13:50:58.941Z,60.70
2023-04-15T13:53:37.627Z,60.50
2023-04-15T13:56:09.303Z,60.20
2023-04-15T13:58:37.306Z,59.90
2023-04-15T14:01:05.795Z,59.40
2023-04-15T14:03:33.754Z,59.90
2023-04-15T14:06:00.983Z,61.10
2023-04-15T14:08:27.662Z,59.70
2023-04-15T14:10:54.332Z,60.90
2023-04-15T14:13:21.012Z,61.50
2023-04-15T14:15:47.696Z,62.70
2023-04-15T14:18:14.501Z,63.10
2023-04-15T14:20:41.204Z,64.00
2023-04-15T14:23:07.941Z,64.90
2023-04-15T14:25:34.646Z,64.30
2023-04-15T14:28:03.242Z,64.30
2023-04-15T14:30:30.190Z,65.60
2023-04-15T14:32:56.925Z,67.00
2023-04-15T14:35:26.384Z,67.50
2023-04-15T14:37:53.998Z,67.30
2023-04-15T14:40:20.737Z,66.60
2023-04-15T14:42:47.490Z,66.40
2023-04-15T14:45:14.259Z,66.20
2023-04-15T14:47:41.190Z,65.20
2023-04-15T14:50:08.439Z,65.90
2023-04-15T14:52:38.768Z,66.20
2023-04-15T14:55:07.301Z,66.90
2023-04-15T14:57:34.058Z,67.10
2023-04-15T15:00:00.750Z,66.70
2023-04-15T15:02:38.432Z,68.20
2023-04-15T15:05:07.228Z,68.90
2023-04-15T15:07:33.982Z,68.30
2023-04-15T15:10:00.801Z,67.50
2023-04-15T15:12:27.455Z,69.10
2023-04-15T15:14:55.999Z,69.20
2023-04-15T15:17:22.844Z,68.10
2023-04-15T15:19:49.617Z,66.40
2023-04-15T15:22:17.538Z,65.80
2023-04-15T15:24:45.275Z,66.50
2023-04-15T15:27:12.041Z,66.10
2023-04-15T15:29:38.978Z,66.20
2023-04-15T15:32:05.804Z,66.50
2023-04-15T15:34:32.540Z,65.40
2023-04-15T15:37:00.741Z,66.10
2023-04-15T15:39:27.987Z,66.30
2023-04-15T15:41:55.084Z,66.40
2023-04-15T15:44:21.859Z,66.70
2023-04-15T15:46:49.965Z,66.90
2023-04-15T15:49:16.827Z,67.40
2023-04-15T15:51:43.526Z,66.50
2023-04-15T15:54:10.437Z,68.80
2023-04-15T15:56:39.260Z,69.40
2023-04-15T15:59:06.235Z,72.40
2023-04-15T16:01:33.263Z,75.60
2023-04-15T16:04:00.791Z,77.70
2023-04-15T16:06:28.132Z,79.20
2023-04-15T16:08:55.116Z,81.00
2023-04-15T16:11:21.816Z,81.70
2023-04-15T16:13:48.526Z,82.10
2023-04-15T16:16:15.487Z,81.60
2023-04-15T16:18:42.244Z,81.20
2023-04-15T16:21:09.135Z,81.50
2023-04-15T16:23:36.683Z,81.70
2023-04-15T16:26:03.642Z,81.90
2023-04-15T16:28:30.333Z,81.40
2023-04-15T16:30:57.164Z,81.20
2023-04-15T16:33:24.137Z,80.80
2023-04-15T16:35:51.485Z,81.70
2023-04-15T16:38:18.295Z,81.50
2023-04-15T16:40:45.643Z,81.30
2023-04-15T16:43:12.335Z,82.10
2023-04-15T16:45:39.192Z,81.10
2023-04-15T16:48:06.168Z,81.40
2023-04-15T16:50:32.946Z,81.70
2023-04-15T16:52:59.614Z,81.40
2023-04-15T16:55:26.670Z,81.50
2023-04-15T16:58:01.642Z,81.30
2023-04-15T17:00:31.317Z,81.20
2023-04-15T17:02:58.830Z,81.50
2023-04-15T17:05:27.488Z,81.10
2023-04-15T17:07:54.758Z,80.80
2023-04-15T17:10:21.500Z,80.60
2023-04-15T17:12:49.751Z,80.90
2023-04-15T17:15:16.506Z,80.90
2023-04-15T17:17:43.298Z,81.00
2023-04-15T17:20:11.082Z,81.30
2023-04-15T17:22:37.938Z,81.90
2023-04-15T17:25:05.131Z,81.80
2023-04-15T17:27:31.802Z,82.50
2023-04-15T17:29:58.481Z,82.60
2023-04-15T17:32:31.457Z,82.30
2023-04-15T17:34:58.361Z,82.80
2023-04-15T17:37:25.410Z,82.30
2023-04-15T17:39:52.455Z,82.70
2023-04-15T17:42:19.190Z,83.80
2023-04-15T17:44:46.111Z,82.70
2023-04-15T17:47:12.805Z,82.90
2023-04-15T17:49:39.500Z,82.50
2023-04-15T17:52:06.361Z,82.10
2023-04-15T17:54:33.087Z,81.80
2023-04-15T17:57:00.133Z,82.80
2023-04-15T17:59:27.876Z,83.30
2023-04-15T18:01:54.820Z,83.60
2023-04-15T18:04:24.063Z,83.90
2023-04-15T18:06:52.659Z,83.50
2023-04-15T18:09:19.349Z,83.10
2023-04-15T18:11:48.273Z,83.80
2023-04-15T18:14:26.640Z,84.60
2023-04-15T18:17:00.620Z,85.20
2023-04-15T18:19:27.713Z,83.10
2023-04-15T18:21:54.403Z,83.00
2023-04-15T18:24:22.027Z,83.60
2023-04-15T18:26:49.297Z,83.00
2023-04-15T18:29:16.334Z,83.90
2023-04-15T18:31:43.102Z,83.60
2023-04-15T18:34:09.951Z,83.70
2023-04-15T18:36:36.705Z,83.30
2023-04-15T18:39:04.332Z,83.70
2023-04-15T18:41:31.265Z,84.30
2023-04-15T18:43:57.966Z,84.10
2023-04-15T18:46:24.740Z,83.70
2023-04-15T18:48:51.427Z,84.20
2023-04-15T18:51:18.092Z,84.10
2023-04-15T18:53:44.856Z,85.10
2023-04-15T18:56:11.576Z,85.20
2023-04-15T18:59:25.406Z,85.30
2023-04-15T19:01:25.024Z,85.10
2023-04-15T19:03:51.787Z,85.00
2023-04-15T19:06:18.611Z,84.70
2023-04-15T19:08:45.343Z,85.00
2023-04-15T19:11:12.039Z,83.90
2023-04-15T19:13:38.871Z,84.30
2023-04-15T19:16:05.789Z,83.60
2023-04-15T19:18:32.518Z,82.70
2023-04-15T19:20:59.215Z,82.20
2023-04-15T19:23:26.134Z,82.30
2023-04-15T19:25:52.889Z,83.00
2023-04-15T19:28:19.766Z,83.40
2023-04-15T19:30:46.593Z,83.60
2023-04-15T19:33:13.312Z,84.50
2023-04-15T19:35:42.989Z,83.90
2023-04-15T19:38:09.673Z,84.20
2023-04-15T19:40:36.365Z,84.10
2023-04-15T19:43:03.057Z,84.40
2023-04-15T19:45:31.214Z,84.60
2023-04-15T19:47:57.954Z,84.90
2023-04-15T19:50:26.413Z,85.10
2023-04-15T19:52:54.026Z,85.10
2023-04-15T19:55:20.879Z,84.90
2023-04-15T19:57:47.638Z,84.90
2023-04-15T20:00:14.498Z,84.80
2023-04-15T20:02:41.359Z,84.50
2023-04-15T20:05:09.971Z,85.20
2023-04-15T20:07:37.003Z,85.40
2023-04-15T20:10:09.624Z,85.50
2023-04-15T20:12:50.079Z,85.90
2023-04-15T20:15:19.840Z,86.00
2023-04-15T20:17:46.651Z,85.60
2023-04-15T20:20:13.441Z,85.70
2023-04-15T20:22:40.212Z,86.20
2023-04-15T20:25:07.463Z,86.60
2023-04-15T20:27:34.215Z,86.80
2023-04-15T20:30:01.132Z,86.30
2023-04-15T20:32:28.278Z,86.60
2023-04-15T20:34:55.208Z,87.00
2023-04-15T20:37:22.314Z,87.10
2023-04-15T20:39:49.280Z,86.60
2023-04-15T20:42:16.094Z,86.70
2023-04-15T20:44:42.904Z,87.10
2023-04-15T20:47:09.684Z,87.30
2023-04-15T20:49:38.180Z,87.50
2023-04-15T20:52:06.652Z,86.90
2023-04-15T20:54:33.651Z,86.20
2023-04-15T20:57:01.312Z,86.70
2023-04-15T20:59:28.068Z,86.70
2023-04-15T21:01:56.878Z,86.90
2023-04-15T21:04:24.477Z,86.80
2023-04-15T21:06:52.160Z,87.10
2023-04-15T21:09:19.041Z,86.70
2023-04-15T21:12:00.633Z,86.70
2023-04-15T21:14:28.808Z,87.20
2023-04-15T21:16:57.952Z,87.10
2023-04-15T21:19:24.792Z,86.70
2023-04-15T21:21:52.107Z,86.70
2023-04-15T21:24:18.792Z,86.80
2023-04-15T21:26:45.487Z,86.30
2023-04-15T21:29:12.414Z,86.40
2023-04-15T21:31:40.222Z,86.20
2023-04-15T21:34:06.993Z,86.00
2023-04-15T21:36:33.911Z,86.40
2023-04-15T21:39:00.957Z,86.80
2023-04-15T21:41:27.798Z,87.10
2023-04-15T21:43:54.525Z,87.20
2023-04-15T21:46:25.349Z,87.20
2023-04-15T21:48:55.378Z,87.30
2023-04-15T21:51:22.393Z,87.30
2023-04-15T21:53:49.308Z,86.80
2023-04-15T21:56:16.047Z,87.10
2023-04-15T21:58:42.970Z,87.30
2023-04-15T22:01:09.693Z,87.00
2023-04-15T22:03:36.737Z,87.30
2023-04-15T22:06:04.179Z,87.60
2023-04-15T22:08:44.590Z,87.50
2023-04-15T22:11:26.851Z,87.30
2023-04-15T22:13:54.466Z,87.30
2023-04-15T22:16:21.327Z,87.10
2023-04-15T22:18:48.173Z,87.00
2023-04-15T22:21:15.074Z,87.10
2023-04-15T22:23:42.031Z,87.00
2023-04-15T22:26:08.749Z,87.20
2023-04-15T22:28:35.511Z,87.20
2023-04-15T22:31:02.395Z,87.00
2023-04-15T22:33:29.446Z,87.10
2023-04-15T22:35:56.608Z,87.70
2023-04-15T22:38:24.111Z,87.60
2023-04-15T22:40:53.809Z,87.40
2023-04-15T22:43:20.662Z,87.10
2023-04-15T22:45:51.158Z,87.00
2023-04-15T22:48:18.684Z,87.40
2023-04-15T22:50:45.705Z,87.40
2023-04-15T22:53:12.452Z,87.30
2023-04-15T22:55:39.208Z,87.30
2023-04-15T22:58:05.899Z,87.60
2023-04-15T23:00:32.609Z,87.10
2023-04-15T23:02:59.412Z,87.00
2023-04-15T23:05:26.371Z,86.90
2023-04-15T23:07:53.110Z,87.50
2023-04-15T23:10:19.823Z,87.00
2023-04-15T23:12:46.798Z,87.10
2023-04-15T23:15:13.580Z,87.10
2023-04-15T23:17:42.549Z,86.80
2023-04-15T23:20:09.833Z,87.00
2023-04-15T23:22:37.714Z,86.80
2023-04-15T23:25:06.101Z,87.30
2023-04-15T23:27:33.052Z,86.80
2023-04-15T23:29:59.768Z,86.90
2023-04-15T23:32:27.256Z,86.40
2023-04-15T23:34:54.060Z,86.70
2023-04-15T23:37:20.882Z,86.90
2023-04-15T23:39:47.565Z,86.60
2023-04-15T23:42:14.336Z,86.30
2023-04-15T23:44:41.046Z,86.40
2023-04-15T23:47:07.783Z,86.60
2023-04-15T23:49:36.475Z,86.80
2023-04-15T23:52:03.540Z,86.80
2023-04-15T23:54:30.293Z,86.90
2023-04-15T23:56:56.971Z,86.90
2023-04-15T23:59:23.992Z,87.30
